| time (UTC) | temp C | wind direction | speed KPH | gust KPH | rain 1hr cm | rain 24hr cm | rain mn cm | humidity % | barometer mb |
| 20260507223351 | 29 | 99 | 6.4 | 8.0 | 0.00 | 0.00 | 0.00 | 79 | 1002.0 |
| 20260507222851 | 29 | 92 | 3.2 | 3.2 | 0.00 | 0.00 | 0.00 | 79 | 1002.0 |
| 20260507222350 | 29 | 61 | 4.8 | 4.8 | 0.00 | 0.00 | 0.00 | 79 | 1002.0 |
| 20260507221850 | 29 | 89 | 3.2 | 3.2 | 0.00 | 0.00 | 0.00 | 78 | 1002.0 |
| 20260507221350 | 29 | 80 | 1.6 | 1.6 | 0.00 | 0.00 | 0.00 | 79 | 1002.0 |
| 20260507220850 | 29 | 84 | 1.6 | 3.2 | 0.00 | 0.00 | 0.00 | 79 | 1002.0 |
| 20260507220350 | 29 | 84 | 1.6 | 1.6 | 0.00 | 0.00 | 0.00 | 79 | 1002.0 |
| 20260507215851 | 29 | 102 | 3.2 | 3.2 | 0.00 | 0.00 | 0.00 | 79 | 1002.0 |
| 20260507215350 | 29 | 94 | 1.6 | 1.6 | 0.00 | 0.00 | 0.00 | 79 | 1002.0 |
| 20260507214850 | 29 | 118 | 0.0 | 1.6 | 0.00 | 0.00 | 0.00 | 79 | 1001.0 |
| 20260507214350 | 29 | 144 | 3.2 | 4.8 | 0.00 | 0.00 | 0.00 | 79 | 1002.0 |
| 20260507213850 | 29 | 116 | 4.8 | 4.8 | 0.00 | 0.00 | 0.00 | 79 | 1002.0 |
| 20260507213350 | 29 | 84 | 3.2 | 3.2 | 0.00 | 0.00 | 0.00 | 79 | 1002.0 |
| 20260507212851 | 30 | 102 | 3.2 | 3.2 | 0.00 | 0.00 | 0.00 | 79 | 1002.0 |
| 20260507212351 | 29 | 95 | 1.6 | 3.2 | 0.00 | 0.00 | 0.00 | 79 | 1002.0 |
| 20260507211850 | 29 | 85 | 6.4 | 9.7 | 0.00 | 0.00 | 0.00 | 78 | 1002.0 |
| 20260507211351 | 30 | 150 | 1.6 | 3.2 | 0.00 | 0.00 | 0.00 | 79 | 1002.0 |
| 20260507210850 | 29 | 99 | 3.2 | 3.2 | 0.00 | 0.00 | 0.00 | 79 | 1002.0 |
| 20260507210350 | 30 | 118 | 6.4 | 9.7 | 0.00 | 0.00 | 0.00 | 78 | 1002.0 |
| 20260507205850 | 30 | 104 | 3.2 | 4.8 | 0.00 | 0.00 | 0.00 | 78 | 1002.0 |
| 20260507205351 | 29 | 97 | 4.8 | 8.0 | 0.00 | 0.00 | 0.00 | 78 | 1002.0 |
| 20260507204850 | 29 | 90 | 8.0 | 8.0 | 0.00 | 0.00 | 0.00 | 78 | 1002.0 |
| 20260507204350 | 30 | 105 | 4.8 | 4.8 | 0.00 | 0.00 | 0.00 | 78 | 1002.0 |
| 20260507203851 | 30 | 81 | 4.8 | 4.8 | 0.00 | 0.00 | 0.00 | 78 | 1002.0 |
| 20260507203351 | 30 | 114 | 6.4 | 8.0 | 0.00 | 0.00 | 0.00 | 78 | 1003.0 |
| 20260507202850 | 30 | 95 | 1.6 | 4.8 | 0.00 | 0.00 | 0.00 | 78 | 1002.0 |
| 20260507202350 | 30 | 101 | 6.4 | 8.0 | 0.00 | 0.00 | 0.00 | 78 | 1002.0 |
| 20260507201851 | 30 | 69 | 6.4 | 8.0 | 0.00 | 0.00 | 0.00 | 78 | 1002.0 |
| 20260507201350 | 30 | 72 | 1.6 | 3.2 | 0.00 | 0.00 | 0.00 | 79 | 1003.0 |
| 20260507200850 | 30 | 80 | 1.6 | 3.2 | 0.00 | 0.00 | 0.00 | 78 | 1003.0 |
| 20260507200350 | 30 | 76 | 0.0 | 1.6 | 0.00 | 0.00 | 0.00 | 78 | 1003.0 |
| 20260507195850 | 30 | 97 | 6.4 | 9.7 | 0.00 | 0.00 | 0.00 | 78 | 1003.0 |
| 20260507195350 | 30 | 104 | 1.6 | 3.2 | 0.00 | 0.00 | 0.00 | 77 | 1003.0 |
| 20260507194850 | 30 | 133 | 6.4 | 8.0 | 0.00 | 0.00 | 0.00 | 77 | 1003.0 |
| 20260507194351 | 30 | 150 | 8.0 | 9.7 | 0.00 | 0.00 | 0.00 | 77 | 1003.0 |
| 20260507193851 | 30 | 70 | 6.4 | 12.9 | 0.00 | 0.00 | 0.00 | 78 | 1003.0 |
| 20260507193351 | 30 | 125 | 3.2 | 3.2 | 0.00 | 0.00 | 0.00 | 78 | 1003.0 |
| 20260507192850 | 30 | 105 | 3.2 | 4.8 | 0.00 | 0.00 | 0.00 | 78 | 1003.0 |
| 20260507192350 | 30 | 139 | 4.8 | 8.0 | 0.00 | 0.00 | 0.00 | 77 | 1003.0 |
| 20260507191854 | 30 | 134 | 4.8 | 4.8 | 0.00 | 0.00 | 0.00 | 77 | 1003.0 |
| 20260507191351 | 30 | 96 | 4.8 | 9.7 | 0.00 | 0.00 | 0.00 | 77 | 1003.0 |
| 20260507190850 | 30 | 94 | 9.7 | 11.3 | 0.00 | 0.00 | 0.00 | 77 | 1003.0 |
| 20260507190351 | 30 | 110 | 8.0 | 11.3 | 0.00 | 0.00 | 0.00 | 77 | 1003.0 |
| 20260507185850 | 30 | 58 | 8.0 | 11.3 | 0.00 | 0.00 | 0.00 | 76 | 1003.0 |
| 20260507185350 | 30 | 92 | 6.4 | 8.0 | 0.00 | 0.00 | 0.00 | 77 | 1003.0 |
| 20260507184851 | 30 | 61 | 4.8 | 8.0 | 0.00 | 0.00 | 0.00 | 77 | 1004.0 |
| 20260507184354 | 30 | 60 | 6.4 | 8.0 | 0.00 | 0.00 | 0.00 | 77 | 1004.0 |
| 20260507183851 | 30 | 99 | 3.2 | 3.2 | 0.00 | 0.00 | 0.00 | 77 | 1004.0 |
| 20260507183350 | 30 | 146 | 6.4 | 8.0 | 0.00 | 0.00 | 0.00 | 77 | 1003.0 |
| 20260507182851 | 30 | 137 | 4.8 | 4.8 | 0.00 | 0.00 | 0.00 | 76 | 1004.0 |
| 20260507182350 | 30 | 153 | 1.6 | 1.6 | 0.00 | 0.00 | 0.00 | 76 | 1004.0 |
| 20260507181851 | 30 | 124 | 3.2 | 3.2 | 0.00 | 0.00 | 0.00 | 77 | 1004.0 |
| 20260507181350 | 30 | 81 | 1.6 | 3.2 | 0.00 | 0.00 | 0.00 | 76 | 1004.0 |
| 20260507180851 | 30 | 136 | 3.2 | 3.2 | 0.00 | 0.00 | 0.00 | 76 | 1004.0 |
| 20260507180352 | 30 | 76 | 8.0 | 11.3 | 0.00 | 0.00 | 0.00 | 75 | 1004.0 |
| 20260507175850 | 30 | 78 | 1.6 | 3.2 | 0.00 | 0.00 | 0.00 | 75 | 1004.0 |
| 20260507175350 | 30 | 115 | 8.0 | 11.3 | 0.00 | 0.00 | 0.00 | 75 | 1004.0 |
| 20260507174850 | 30 | 142 | 3.2 | 3.2 | 0.00 | 0.00 | 0.00 | 74 | 1004.0 |
| 20260507174351 | 30 | 86 | 8.0 | 12.9 | 0.00 | 0.00 | 0.00 | 74 | 1004.0 |
| 20260507173850 | 30 | 70 | 6.4 | 8.0 | 0.00 | 0.00 | 0.00 | 74 | 1004.0 |
| 20260507173350 | 30 | 115 | 4.8 | 4.8 | 0.00 | 0.00 | 0.00 | 74 | 1004.0 |
| 20260507172850 | 30 | 70 | 9.7 | 11.3 | 0.00 | 0.00 | 0.00 | 75 | 1004.0 |
| 20260507172350 | 30 | 50 | 6.4 | 9.7 | 0.00 | 0.00 | 0.00 | 76 | 1004.0 |
| 20260507171852 | 30 | 91 | 4.8 | 9.7 | 0.00 | 0.00 | 0.00 | 76 | 1004.0 |
| 20260507171351 | 30 | 69 | 11.3 | 14.5 | 0.00 | 0.00 | 0.00 | 76 | 1004.0 |
| 20260507170850 | 30 | 88 | 4.8 | 11.3 | 0.00 | 0.00 | 0.00 | 76 | 1004.0 |
| 20260507170351 | 30 | 50 | 3.2 | 4.8 | 0.00 | 0.00 | 0.00 | 76 | 1004.0 |
| 20260507165850 | 30 | 84 | 8.0 | 11.3 | 0.00 | 0.00 | 0.00 | 77 | 1004.0 |
| 20260507165351 | 30 | 90 | 6.4 | 9.7 | 0.00 | 0.00 | 0.00 | 77 | 1004.0 |
| 20260507164850 | 30 | 54 | 4.8 | 11.3 | 0.00 | 0.00 | 0.00 | 77 | 1004.0 |
| 20260507164352 | 30 | 35 | 8.0 | 11.3 | 0.00 | 0.00 | 0.00 | 76 | 1004.0 |
| 20260507163851 | 30 | 57 | 4.8 | 8.0 | 0.00 | 0.00 | 0.00 | 76 | 1004.0 |
| 20260507163351 | 30 | 80 | 1.6 | 3.2 | 0.00 | 0.00 | 0.00 | 76 | 1004.0 |
| 20260507162851 | 30 | 95 | 4.8 | 4.8 | 0.00 | 0.00 | 0.00 | 76 | 1004.0 |
| 20260507162351 | 30 | 72 | 4.8 | 4.8 | 0.00 | 0.00 | 0.00 | 76 | 1004.0 |
| 20260507161851 | 30 | 67 | 8.0 | 11.3 | 0.00 | 0.00 | 0.00 | 75 | 1004.0 |
| 20260507161351 | 30 | 154 | 3.2 | 8.0 | 0.00 | 0.00 | 0.00 | 75 | 1004.0 |
| 20260507160851 | 30 | 77 | 4.8 | 8.0 | 0.00 | 0.00 | 0.00 | 75 | 1004.0 |
| 20260507160350 | 30 | 105 | 1.6 | 1.6 | 0.00 | 0.00 | 0.00 | 76 | 1004.0 |
| 20260507155850 | 30 | 89 | 6.4 | 9.7 | 0.00 | 0.00 | 0.00 | 76 | 1004.0 |
| 20260507155351 | 30 | 66 | 6.4 | 8.0 | 0.00 | 0.00 | 0.00 | 75 | 1004.0 |
| 20260507154851 | 30 | 61 | 1.6 | 3.2 | 0.00 | 0.00 | 0.00 | 75 | 1004.0 |
| 20260507154352 | 30 | 60 | 8.0 | 9.7 | 0.00 | 0.00 | 0.00 | 75 | 1004.0 |
| 20260507153850 | 30 | 104 | 6.4 | 9.7 | 0.00 | 0.00 | 0.00 | 75 | 1003.0 |
| 20260507153351 | 30 | 80 | 4.8 | 8.0 | 0.00 | 0.00 | 0.00 | 76 | 1003.0 |
| 20260507152850 | 30 | 73 | 6.4 | 9.7 | 0.00 | 0.00 | 0.00 | 76 | 1003.0 |
| 20260507152351 | 30 | 113 | 3.2 | 4.8 | 0.00 | 0.00 | 0.00 | 76 | 1003.0 |
| 20260507151850 | 30 | 80 | 6.4 | 9.7 | 0.00 | 0.00 | 0.00 | 75 | 1003.0 |
| 20260507151350 | 30 | 99 | 3.2 | 4.8 | 0.00 | 0.00 | 0.00 | 75 | 1003.0 |
| 20260507150851 | 30 | 71 | 3.2 | 8.0 | 0.00 | 0.00 | 0.00 | 75 | 1003.0 |
| 20260507150350 | 30 | 78 | 1.6 | 4.8 | 0.00 | 0.00 | 0.00 | 75 | 1003.0 |
| 20260507145851 | 30 | 79 | 8.0 | 11.3 | 0.00 | 0.00 | 0.00 | 75 | 1003.0 |
| 20260507145350 | 30 | 112 | 8.0 | 12.9 | 0.00 | 0.00 | 0.00 | 75 | 1003.0 |
| 20260507144851 | 30 | 73 | 6.4 | 11.3 | 0.00 | 0.00 | 0.00 | 75 | 1002.0 |
| 20260507144350 | 30 | 114 | 8.0 | 11.3 | 0.00 | 0.00 | 0.00 | 75 | 1002.0 |
| 20260507143850 | 30 | 88 | 8.0 | 14.5 | 0.00 | 0.00 | 0.00 | 75 | 1002.0 |
| 20260507143352 | 30 | 100 | 11.3 | 14.5 | 0.00 | 0.00 | 0.00 | 75 | 1002.0 |
| 20260507142850 | 30 | 97 | 8.0 | 9.7 | 0.00 | 0.00 | 0.00 | 75 | 1002.0 |
| 20260507142351 | 30 | 70 | 9.7 | 14.5 | 0.00 | 0.00 | 0.00 | 75 | 1002.0 |
| 20260507141850 | 30 | 65 | 8.0 | 14.5 | 0.00 | 0.00 | 0.00 | 75 | 1002.0 |
| 20260507141350 | 30 | 97 | 8.0 | 14.5 | 0.00 | 0.00 | 0.00 | 76 | 1002.0 |
| 20260507140850 | 30 | 90 | 1.6 | 3.2 | 0.00 | 0.00 | 0.00 | 76 | 1002.0 |
| 20260507140351 | 30 | 84 | 8.0 | 11.3 | 0.00 | 0.00 | 0.00 | 76 | 1002.0 |
| 20260507135851 | 30 | 108 | 6.4 | 9.7 | 0.00 | 0.00 | 0.00 | 76 | 1002.0 |
| 20260507135351 | 30 | 71 | 12.9 | 16.1 | 0.00 | 0.00 | 0.00 | 76 | 1002.0 |
| 20260507134851 | 30 | 95 | 1.6 | 3.2 | 0.00 | 0.00 | 0.00 | 77 | 1002.0 |
| 20260507134350 | 30 | 74 | 6.4 | 8.0 | 0.00 | 0.00 | 0.00 | 76 | 1001.0 |
| 20260507133851 | 30 | 41 | 4.8 | 4.8 | 0.00 | 0.00 | 0.00 | 76 | 1002.0 |
| 20260507133350 | 30 | 94 | 4.8 | 8.0 | 0.00 | 0.00 | 0.00 | 75 | 1001.0 |
| 20260507132851 | 30 | 90 | 3.2 | 9.7 | 0.00 | 0.00 | 0.00 | 74 | 1001.0 |
| 20260507132350 | 30 | 101 | 6.4 | 8.0 | 0.00 | 0.00 | 0.00 | 75 | 1001.0 |
| 20260507131423 | 30 | 101 | 4.8 | 8.0 | 0.00 | 0.00 | 0.00 | 74 | 1001.0 |
| 20260507130850 | 30 | 89 | 8.0 | 12.9 | 0.00 | 0.00 | 0.00 | 74 | 1001.0 |
| 20260507130351 | 30 | 59 | 11.3 | 14.5 | 0.00 | 0.00 | 0.00 | 74 | 1001.0 |
| 20260507125851 | 30 | 86 | 4.8 | 8.0 | 0.00 | 0.00 | 0.00 | 74 | 1001.0 |
| 20260507125351 | 30 | 143 | 4.8 | 8.0 | 0.00 | 0.00 | 0.00 | 74 | 1001.0 |
| 20260507124850 | 30 | 93 | 4.8 | 9.7 | 0.00 | 0.00 | 0.00 | 74 | 1001.0 |
| 20260507124350 | 30 | 100 | 4.8 | 11.3 | 0.00 | 0.00 | 0.00 | 74 | 1001.0 |
| 20260507123853 | 30 | 82 | 1.6 | 3.2 | 0.00 | 0.00 | 0.00 | 75 | 1001.0 |
| 20260507123351 | 30 | 49 | 6.4 | 9.7 | 0.00 | 0.00 | 0.00 | 75 | 1001.0 |
| 20260507122850 | 31 | 328 | 3.2 | 3.2 | 0.00 | 0.00 | 0.00 | 75 | 1000.0 |
| 20260507122350 | 31 | 119 | 9.7 | 11.3 | 0.00 | 0.00 | 0.00 | 75 | 1000.0 |
| 20260507121851 | 30 | 84 | 8.0 | 9.7 | 0.00 | 0.00 | 0.00 | 75 | 1000.0 |
| 20260507121351 | 31 | 68 | 16.1 | 17.7 | 0.00 | 0.00 | 0.00 | 74 | 1001.0 |
| 20260507120852 | 31 | 89 | 4.8 | 8.0 | 0.00 | 0.00 | 0.00 | 74 | 1000.0 |
| 20260507120352 | 31 | 46 | 11.3 | 16.1 | 0.00 | 0.00 | 0.00 | 72 | 1000.0 |
| 20260507115850 | 31 | 86 | 6.4 | 8.0 | 0.00 | 0.00 | 0.00 | 72 | 1000.0 |
| 20260507115350 | 31 | 122 | 9.7 | 16.1 | 0.00 | 0.00 | 0.00 | 72 | 1000.0 |
| 20260507114851 | 31 | 115 | 1.6 | 3.2 | 0.00 | 0.00 | 0.00 | 72 | 1000.0 |
| 20260507114351 | 31 | 83 | 8.0 | 11.3 | 0.00 | 0.00 | 0.00 | 71 | 1000.0 |
| 20260507113850 | 31 | 24 | 6.4 | 9.7 | 0.00 | 0.00 | 0.00 | 70 | 1000.0 |
| 20260507113350 | 31 | 76 | 8.0 | 12.9 | 0.00 | 0.00 | 0.00 | 69 | 1000.0 |
| 20260507112850 | 31 | 148 | 3.2 | 4.8 | 0.00 | 0.00 | 0.00 | 69 | 1000.0 |
| 20260507112351 | 32 | 96 | 11.3 | 12.9 | 0.00 | 0.00 | 0.00 | 69 | 1001.0 |
| 20260507111850 | 32 | 143 | 4.8 | 8.0 | 0.00 | 0.00 | 0.00 | 69 | 1000.0 |
| 20260507111350 | 32 | 106 | 3.2 | 4.8 | 0.00 | 0.00 | 0.00 | 68 | 1001.0 |
| 20260507110851 | 32 | 68 | 4.8 | 8.0 | 0.00 | 0.00 | 0.00 | 67 | 1000.0 |
| 20260507110350 | 32 | 139 | 6.4 | 9.7 | 0.00 | 0.00 | 0.00 | 68 | 1000.0 |
| 20260507105850 | 32 | 133 | 6.4 | 9.7 | 0.00 | 0.00 | 0.00 | 67 | 1001.0 |
| 20260507105352 | 32 | 67 | 4.8 | 8.0 | 0.00 | 0.00 | 0.00 | 68 | 1001.0 |
| 20260507104850 | 31 | 141 | 9.7 | 12.9 | 0.00 | 0.00 | 0.00 | 69 | 1000.0 |
| 20260507104351 | 32 | 138 | 9.7 | 12.9 | 0.00 | 0.00 | 0.00 | 70 | 1001.0 |
| 20260507103850 | 32 | 88 | 4.8 | 4.8 | 0.00 | 0.00 | 0.00 | 68 | 1001.0 |
| 20260507103352 | 32 | 78 | 8.0 | 12.9 | 0.00 | 0.00 | 0.00 | 68 | 1001.0 |
| 20260507102852 | 32 | 60 | 6.4 | 8.0 | 0.00 | 0.00 | 0.00 | 67 | 1000.0 |
| 20260507102351 | 32 | 144 | 14.5 | 17.7 | 0.00 | 0.00 | 0.00 | 67 | 1001.0 |
| 20260507101851 | 32 | 80 | 8.0 | 14.5 | 0.00 | 0.00 | 0.00 | 65 | 1001.0 |
| 20260507101350 | 32 | 59 | 6.4 | 9.7 | 0.00 | 0.00 | 0.00 | 67 | 1000.0 |
| 20260507100851 | 32 | 0 | 11.3 | 12.9 | 0.00 | 0.00 | 0.00 | 67 | 1001.0 |
| 20260507100350 | 32 | 165 | 0.0 | 1.6 | 0.00 | 0.00 | 0.00 | 66 | 1001.0 |
| 20260507095851 | 32 | 46 | 4.8 | 12.9 | 0.00 | 0.00 | 0.00 | 67 | 1001.0 |
| 20260507095350 | 33 | 44 | 8.0 | 9.7 | 0.00 | 0.00 | 0.00 | 65 | 1001.0 |
| 20260507094851 | 33 | 90 | 11.3 | 12.9 | 0.00 | 0.00 | 0.00 | 64 | 1001.0 |
| 20260507094350 | 32 | 101 | 6.4 | 8.0 | 0.00 | 0.00 | 0.00 | 65 | 1001.0 |
| 20260507093851 | 33 | 177 | 16.1 | 20.9 | 0.00 | 0.00 | 0.00 | 63 | 1001.0 |
| 20260507093350 | 32 | 81 | 9.7 | 12.9 | 0.00 | 0.00 | 0.00 | 65 | 1001.0 |
| 20260507092851 | 32 | 95 | 8.0 | 12.9 | 0.00 | 0.00 | 0.00 | 64 | 1001.0 |
| 20260507092352 | 33 | 318 | 8.0 | 12.9 | 0.00 | 0.00 | 0.00 | 63 | 1001.0 |
| 20260507091850 | 33 | 98 | 8.0 | 11.3 | 0.00 | 0.00 | 0.00 | 64 | 1001.0 |
| 20260507091351 | 33 | 41 | 8.0 | 12.9 | 0.00 | 0.00 | 0.00 | 61 | 1001.0 |
| 20260507090851 | 33 | 44 | 8.0 | 11.3 | 0.00 | 0.00 | 0.00 | 62 | 1001.0 |
| 20260507090350 | 33 | 61 | 9.7 | 16.1 | 0.00 | 0.00 | 0.00 | 61 | 1001.0 |
| 20260507085851 | 33 | 65 | 11.3 | 14.5 | 0.00 | 0.00 | 0.00 | 63 | 1001.0 |
| 20260507085350 | 33 | 70 | 11.3 | 14.5 | 0.00 | 0.00 | 0.00 | 64 | 1001.0 |
| 20260507084851 | 33 | 103 | 12.9 | 16.1 | 0.00 | 0.00 | 0.00 | 63 | 1001.0 |
| 20260507084351 | 33 | 80 | 11.3 | 12.9 | 0.00 | 0.00 | 0.00 | 62 | 1001.0 |
| 20260507083850 | 33 | 43 | 6.4 | 11.3 | 0.00 | 0.00 | 0.00 | 64 | 1001.0 |
| 20260507083350 | 33 | 100 | 8.0 | 9.7 | 0.00 | 0.00 | 0.00 | 63 | 1001.0 |
| 20260507082850 | 33 | 100 | 4.8 | 12.9 | 0.00 | 0.00 | 0.00 | 63 | 1001.0 |
| 20260507082350 | 33 | 120 | 3.2 | 8.0 | 0.00 | 0.00 | 0.00 | 61 | 1002.0 |
| 20260507081850 | 33 | 112 | 3.2 | 8.0 | 0.00 | 0.00 | 0.00 | 60 | 1001.0 |
| 20260507081350 | 33 | 114 | 8.0 | 9.7 | 0.00 | 0.00 | 0.00 | 62 | 1002.0 |
| 20260507080850 | 33 | 84 | 6.4 | 11.3 | 0.00 | 0.00 | 0.00 | 60 | 1002.0 |
| 20260507080351 | 33 | 108 | 11.3 | 11.3 | 0.00 | 0.00 | 0.00 | 59 | 1002.0 |
| 20260507075851 | 33 | 135 | 9.7 | 12.9 | 0.00 | 0.00 | 0.00 | 60 | 1002.0 |
| 20260507075351 | 33 | 84 | 11.3 | 16.1 | 0.00 | 0.00 | 0.00 | 60 | 1002.0 |
| 20260507074850 | 33 | 147 | 11.3 | 12.9 | 0.00 | 0.00 | 0.00 | 59 | 1002.0 |
| 20260507074350 | 34 | 79 | 8.0 | 11.3 | 0.00 | 0.00 | 0.00 | 58 | 1002.0 |
| 20260507073853 | 34 | 130 | 9.7 | 11.3 | 0.00 | 0.00 | 0.00 | 59 | 1002.0 |
| 20260507073350 | 33 | 164 | 4.8 | 4.8 | 0.00 | 0.00 | 0.00 | 58 | 1002.0 |
| 20260507072851 | 33 | 124 | 6.4 | 8.0 | 0.00 | 0.00 | 0.00 | 58 | 1002.0 |
| 20260507072350 | 33 | 175 | 6.4 | 9.7 | 0.00 | 0.00 | 0.00 | 58 | 1002.0 |
| 20260507071851 | 33 | 120 | 1.6 | 3.2 | 0.00 | 0.00 | 0.00 | 58 | 1003.0 |
| 20260507071350 | 33 | 147 | 8.0 | 11.3 | 0.00 | 0.00 | 0.00 | 57 | 1003.0 |
| 20260507070850 | 33 | 172 | 6.4 | 9.7 | 0.00 | 0.00 | 0.00 | 58 | 1003.0 |
| 20260507070351 | 33 | 158 | 6.4 | 11.3 | 0.00 | 0.00 | 0.00 | 60 | 1003.0 |
| 20260507065851 | 33 | 155 | 4.8 | 8.0 | 0.00 | 0.00 | 0.00 | 59 | 1003.0 |
| 20260507065356 | 33 | 174 | 8.0 | 11.3 | 0.00 | 0.00 | 0.00 | 58 | 1003.0 |
| 20260507064850 | 33 | 100 | 6.4 | 8.0 | 0.00 | 0.00 | 0.00 | 58 | 1003.0 |
| 20260507064350 | 33 | 180 | 12.9 | 14.5 | 0.00 | 0.00 | 0.00 | 59 | 1003.0 |
| 20260507063851 | 33 | 212 | 1.6 | 1.6 | 0.00 | 0.00 | 0.00 | 58 | 1003.0 |
| 20260507063350 | 33 | 136 | 11.3 | 12.9 | 0.00 | 0.00 | 0.00 | 58 | 1003.0 |
| 20260507062850 | 33 | 40 | 8.0 | 11.3 | 0.00 | 0.00 | 0.00 | 59 | 1003.0 |
| 20260507062350 | 33 | 145 | 6.4 | 8.0 | 0.00 | 0.00 | 0.00 | 59 | 1003.0 |
| 20260507061850 | 33 | 82 | 9.7 | 16.1 | 0.00 | 0.00 | 0.00 | 59 | 1003.0 |
| 20260507061351 | 33 | 119 | 14.5 | 16.1 | 0.00 | 0.00 | 0.00 | 59 | 1003.0 |
| 20260507060851 | 33 | 48 | 9.7 | 12.9 | 0.00 | 0.00 | 0.00 | 59 | 1003.0 |
| 20260507060351 | 33 | 168 | 3.2 | 3.2 | 0.00 | 0.00 | 0.00 | 59 | 1003.0 |
| 20260507055851 | 33 | 125 | 6.4 | 9.7 | 0.00 | 0.00 | 0.00 | 58 | 1003.0 |
| 20260507055350 | 33 | 110 | 4.8 | 8.0 | 0.00 | 0.00 | 0.00 | 57 | 1003.0 |
| 20260507054850 | 33 | 84 | 1.6 | 1.6 | 0.00 | 0.00 | 0.00 | 59 | 1003.0 |
| 20260507054350 | 33 | 174 | 9.7 | 11.3 | 0.00 | 0.00 | 0.00 | 58 | 1004.0 |
| 20260507053851 | 33 | 161 | 12.9 | 16.1 | 0.00 | 0.00 | 0.00 | 57 | 1004.0 |
| 20260507053350 | 33 | 147 | 3.2 | 4.8 | 0.00 | 0.00 | 0.00 | 58 | 1004.0 |
| 20260507052852 | 33 | 139 | 8.0 | 11.3 | 0.00 | 0.00 | 0.00 | 59 | 1004.0 |
| 20260507052350 | 33 | 141 | 6.4 | 8.0 | 0.00 | 0.00 | 0.00 | 60 | 1004.0 |
| 20260507051850 | 33 | 136 | 3.2 | 3.2 | 0.00 | 0.00 | 0.00 | 61 | 1004.0 |
| 20260507051350 | 33 | 148 | 4.8 | 4.8 | 0.00 | 0.00 | 0.00 | 59 | 1004.0 |
| 20260507050850 | 32 | 152 | 4.8 | 4.8 | 0.00 | 0.00 | 0.00 | 61 | 1004.0 |
| 20260507050350 | 32 | 61 | 1.6 | 8.0 | 0.00 | 0.00 | 0.00 | 62 | 1004.0 |
| 20260507045851 | 32 | 188 | 6.4 | 9.7 | 0.00 | 0.00 | 0.00 | 64 | 1004.0 |
| 20260507045350 | 32 | 155 | 1.6 | 1.6 | 0.00 | 0.00 | 0.00 | 65 | 1004.0 |
| 20260507044851 | 32 | 143 | 0.0 | 1.6 | 0.00 | 0.00 | 0.00 | 65 | 1004.0 |
| 20260507044350 | 32 | 125 | 0.0 | 0.0 | 0.00 | 0.00 | 0.00 | 64 | 1004.0 |
| 20260507043852 | 32 | 112 | 3.2 | 3.2 | 0.00 | 0.00 | 0.00 | 64 | 1004.0 |
| 20260507043350 | 32 | 132 | 1.6 | 1.6 | 0.00 | 0.00 | 0.00 | 64 | 1004.0 |
| 20260507042850 | 32 | 178 | 4.8 | 8.0 | 0.00 | 0.00 | 0.00 | 65 | 1004.0 |
| 20260507042350 | 33 | 146 | 4.8 | 8.0 | 0.00 | 0.00 | 0.00 | 63 | 1004.0 |
| 20260507041851 | 33 | 154 | 0.0 | 1.6 | 0.00 | 0.00 | 0.00 | 61 | 1004.0 |
| 20260507041350 | 32 | 168 | 0.0 | 0.0 | 0.00 | 0.00 | 0.00 | 64 | 1004.0 |
| 20260507040850 | 32 | 116 | 1.6 | 3.2 | 0.00 | 0.00 | 0.00 | 66 | 1004.0 |
| 20260507040350 | 32 | 132 | 3.2 | 4.8 | 0.00 | 0.00 | 0.00 | 67 | 1004.0 |
| 20260507035850 | 32 | 153 | 1.6 | 3.2 | 0.00 | 0.00 | 0.00 | 67 | 1004.0 |
| 20260507035350 | 32 | 84 | 3.2 | 4.8 | 0.00 | 0.00 | 0.00 | 64 | 1005.0 |
| 20260507034850 | 32 | 148 | 3.2 | 3.2 | 0.00 | 0.00 | 0.00 | 64 | 1004.0 |
| 20260507034351 | 33 | 50 | 3.2 | 4.8 | 0.00 | 0.00 | 0.00 | 66 | 1004.0 |
| 20260507033850 | 32 | 278 | 1.6 | 1.6 | 0.00 | 0.00 | 0.00 | 68 | 1005.0 |
| 20260507033351 | 32 | 169 | 1.6 | 1.6 | 0.00 | 0.00 | 0.00 | 69 | 1005.0 |
| 20260507032851 | 32 | 175 | 1.6 | 3.2 | 0.00 | 0.00 | 0.00 | 68 | 1004.0 |
| 20260507032351 | 32 | 144 | 0.0 | 0.0 | 0.00 | 0.00 | 0.00 | 71 | 1004.0 |
| 20260507031850 | 31 | 166 | 0.0 | 0.0 | 0.00 | 0.00 | 0.00 | 72 | 1004.0 |
| 20260507031350 | 31 | 169 | 0.0 | 0.0 | 0.00 | 0.00 | 0.00 | 73 | 1004.0 |
| 20260507030850 | 30 | 216 | 3.2 | 3.2 | 0.00 | 0.00 | 0.00 | 75 | 1004.0 |
| 20260507030350 | 31 | 243 | 4.8 | 4.8 | 0.00 | 0.00 | 0.00 | 74 | 1004.0 |
| 20260507025850 | 30 | 174 | 0.0 | 1.6 | 0.00 | 0.00 | 0.00 | 76 | 1004.0 |
| 20260507025350 | 30 | 210 | 3.2 | 3.2 | 0.00 | 0.00 | 0.00 | 77 | 1004.0 |
| 20260507024851 | 30 | 246 | 3.2 | 3.2 | 0.00 | 0.00 | 0.00 | 76 | 1004.0 |
| 20260507024350 | 30 | 151 | 0.0 | 0.0 | 0.00 | 0.00 | 0.00 | 76 | 1004.0 |
| 20260507023850 | 30 | 166 | 1.6 | 1.6 | 0.00 | 0.00 | 0.00 | 76 | 1004.0 |
| 20260507023351 | 31 | 172 | 1.6 | 1.6 | 0.00 | 0.00 | 0.00 | 75 | 1004.0 |
| 20260507022850 | 30 | 162 | 0.0 | 0.0 | 0.00 | 0.00 | 0.00 | 76 | 1004.0 |
| 20260507022351 | 30 | 156 | 0.0 | 1.6 | 0.00 | 0.00 | 0.00 | 76 | 1004.0 |
| 20260507021851 | 31 | 176 | 1.6 | 1.6 | 0.00 | 0.00 | 0.00 | 75 | 1004.0 |
| 20260507021351 | 31 | 182 | 1.6 | 1.6 | 0.00 | 0.00 | 0.00 | 74 | 1004.0 |
| 20260507020850 | 30 | 169 | 0.0 | 0.0 | 0.00 | 0.00 | 0.00 | 76 | 1004.0 |
| 20260507020351 | 30 | 155 | 0.0 | 0.0 | 0.00 | 0.00 | 0.00 | 77 | 1004.0 |
| 20260507015850 | 30 | 319 | 4.8 | 8.0 | 0.00 | 0.00 | 0.00 | 77 | 1004.0 |
| 20260507015351 | 30 | 290 | 4.8 | 4.8 | 0.00 | 0.00 | 0.00 | 78 | 1004.0 |
| 20260507014851 | 30 | 184 | 3.2 | 4.8 | 0.00 | 0.00 | 0.00 | 79 | 1004.0 |
| 20260507014350 | 30 | 286 | 4.8 | 4.8 | 0.00 | 0.00 | 0.00 | 78 | 1003.0 |
| 20260507013851 | 30 | 164 | 0.0 | 0.0 | 0.00 | 0.00 | 0.00 | 80 | 1003.0 |
| 20260507013351 | 29 | 214 | 0.0 | 0.0 | 0.00 | 0.00 | 0.00 | 80 | 1003.0 |
| 20260507012851 | 29 | 177 | 0.0 | 1.6 | 0.00 | 0.00 | 0.00 | 80 | 1003.0 |
| 20260507012351 | 29 | 320 | 1.6 | 3.2 | 0.00 | 0.00 | 0.00 | 81 | 1003.0 |
| 20260507011851 | 28 | 200 | 1.6 | 3.2 | 0.00 | 0.00 | 0.00 | 81 | 1003.0 |
| 20260507011350 | 28 | 130 | 0.0 | 0.0 | 0.00 | 0.00 | 0.00 | 81 | 1003.0 |
| 20260507010852 | 28 | 200 | 1.6 | 1.6 | 0.00 | 0.00 | 0.00 | 82 | 1003.0 |
| 20260507010350 | 28 | 137 | 3.2 | 4.8 | 0.00 | 0.00 | 0.00 | 82 | 1003.0 |
| 20260507005851 | 28 | 143 | 1.6 | 1.6 | 0.00 | 0.00 | 0.00 | 83 | 1003.0 |
| 20260507005350 | 28 | 170 | 1.6 | 1.6 | 0.00 | 0.00 | 0.00 | 83 | 1003.0 |
| 20260507004850 | 28 | 282 | 3.2 | 3.2 | 0.00 | 0.00 | 0.00 | 83 | 1003.0 |
| 20260507004350 | 28 | 209 | 1.6 | 1.6 | 0.00 | 0.00 | 0.00 | 83 | 1003.0 |
| 20260507003850 | 28 | 229 | 1.6 | 3.2 | 0.00 | 0.00 | 0.00 | 83 | 1003.0 |
| 20260507003351 | 28 | 232 | 1.6 | 1.6 | 0.00 | 0.00 | 0.00 | 83 | 1003.0 |
| 20260507002851 | 28 | 182 | 0.0 | 0.0 | 0.00 | 0.00 | 0.00 | 83 | 1003.0 |
| 20260507002352 | 28 | 178 | 1.6 | 1.6 | 0.00 | 0.00 | 0.00 | 83 | 1003.0 |
| 20260507001850 | 28 | 191 | 1.6 | 1.6 | 0.00 | 0.00 | 0.00 | 82 | 1003.0 |
| 20260507001350 | 28 | 263 | 1.6 | 1.6 | 0.00 | 0.00 | 0.00 | 82 | 1002.0 |
| 20260507000850 | 28 | 280 | 1.6 | 3.2 | 0.00 | 0.00 | 0.00 | 82 | 1003.0 |
| 20260507000351 | 28 | 146 | 0.0 | 1.6 | 0.00 | 0.00 | 0.00 | 82 | 1002.0 |
| 20260506235851 | 29 | 251 | 0.0 | 0.0 | 0.00 | 0.00 | 0.00 | 81 | 1002.0 |
| 20260506235351 | 29 | 197 | 0.0 | 1.6 | 0.00 | 0.00 | 0.00 | 80 | 1002.0 |
| 20260506234850 | 29 | 170 | 0.0 | 0.0 | 0.00 | 0.00 | 0.00 | 79 | 1002.0 |
| 20260506234351 | 29 | 191 | 1.6 | 3.2 | 0.00 | 0.00 | 0.00 | 79 | 1002.0 |
| 20260506233852 | 29 | 180 | 1.6 | 3.2 | 0.00 | 0.00 | 0.00 | 78 | 1002.0 |
| 20260506233351 | 29 | 178 | 3.2 | 3.2 | 0.00 | 0.00 | 0.00 | 79 | 1002.0 |
| 20260506232850 | 29 | 176 | 3.2 | 4.8 | 0.00 | 0.00 | 0.00 | 79 | 1002.0 |
| 20260506232350 | 29 | 205 | 3.2 | 3.2 | 0.00 | 0.00 | 0.00 | 79 | 1002.0 |
| 20260506231851 | 29 | 165 | 1.6 | 1.6 | 0.00 | 0.00 | 0.00 | 79 | 1002.0 |
| 20260506231350 | 29 | 172 | 1.6 | 1.6 | 0.00 | 0.00 | 0.00 | 79 | 1002.0 |
| 20260506230850 | 29 | 128 | 0.0 | 1.6 | 0.00 | 0.00 | 0.00 | 79 | 1002.0 |
| 20260506230350 | 29 | 156 | 6.4 | 8.0 | 0.00 | 0.00 | 0.00 | 79 | 1002.0 |
| 20260506225850 | 29 | 143 | 0.0 | 0.0 | 0.00 | 0.00 | 0.00 | 79 | 1002.0 |
| 20260506225350 | 29 | 139 | 0.0 | 0.0 | 0.00 | 0.00 | 0.00 | 79 | 1002.0 |
| 20260506224851 | 29 | 168 | 1.6 | 1.6 | 0.00 | 0.00 | 0.00 | 79 | 1001.0 |
| 20260506224350 | 29 | 185 | 3.2 | 3.2 | 0.00 | 0.00 | 0.00 | 79 | 1002.0 |
| 20260506223851 | 29 | 192 | 4.8 | 4.8 | 0.00 | 0.00 | 0.00 | 79 | 1001.0 |